x

Tanner Bank - 121nm West Of San Diego, Ca (46047) Wave Buoy

6:50 - Mon 1st Sep 2014 All times are PDT. -7 hours from GMT.

  • Sig Wave height 7.2ft
  • Swell Direction
  • Peak Period 8s
  • Average Period 6s
  • Wind
    20mph, 25mph gusts
  • Sea Temp 69°f
  • Ar Temp 65°f
  • Sea Pressure 1009.7mb
  • Tanner Bank - 121nm West Of San Diego, Ca
  • Tanner Bank - 121nm West Of San Diego, Ca

More Historic Weather Station data

Upgrade to MSW Pro to gain access to the past 30 days of data for over 8000 Wavebouys and Weather Stations around the globe.

Join Pro

Comparision Forecast

View Surf forecast
   
Seg 09/01 6:50 7ft 8s 6s 20 25 mph 1009.7mb 69f 65f
5:50  -   -   -  22 25 mph 1009.4mb 69f 65f
4:50 8ft 8s 6s 22 27 mph 1009.3mb 69f 65f
3:50 8ft 8s 6s 22 27 mph 1009.3mb 69f 66f
2:50 7.5ft 7s 6s 22 27 mph 1009.5mb 69f 67f
1:50 7ft 7s 6s 22 27 mph 1009.7mb 69f 67f
12:50 7ft 7s 6s 22 25 mph 1009.9mb 69f 67f
Dom 08/31 11:50 6.5ft 7s 6s 22 25 mph 1010.1mb 69f 68f
10:50 6.5ft 8s 6s 18 20 mph 1010.6mb 69f 68f
9:50 7ft 8s 6s 18 22 mph 1010.2mb 69f 69f
8:50 7ft 8s 6s 20 22 mph 1010mb 69f 69f
7:50 7ft 8s 6s 16 20 mph 1009.5mb 69f 69f
6:50 6.5ft 8s 6s 18 22 mph 1009.1mb 69f 70f
5:50 6ft 7s 6s 18 20 mph 1009.2mb 69f 70f
4:50 6.5ft 8s 6s 18 20 mph 1009.5mb 69f 69f
3:50 7ft 8s 6s 16 18 mph 1009.7mb 69f 69f
2:50 6ft 7s 6s 16 18 mph 1010.2mb 69f 68f
1:50 6.5ft 8s 6s 20 25 mph 1010.4mb 69f 68f
12:50 6.5ft 8s 6s 20 25 mph 1010.3mb 69f 68f
11:50 7ft 8s 6s 18 22 mph 1010.7mb 69f 68f
10:50 6.5ft 8s 6s 16 18 mph 1010.9mb 69f 68f
9:50 7ft 8s 6s 18 20 mph 1010.4mb 69f 68f
8:50 6.5ft 8s 6s 18 20 mph 1009.9mb 69f 68f
7:50 6.5ft 8s 6s 18 22 mph 1009.5mb 69f 68f
6:50 6.5ft 8s 6s 18 20 mph 1009.2mb 69f 68f
5:50 6.5ft 8s 6s 18 22 mph 1008.7mb 69f 68f
4:50 7ft 8s 6s 18 20 mph 1008.4mb 69f 69f
3:50 7ft 7s 6s 16 20 mph 1008.5mb 69f 69f
2:50 7.5ft 7s 6s 16 18 mph 1008.7mb 69f 69f
1:50 7ft 7s 6s 18 20 mph 1008.8mb 69f 69f
12:50 7ft 7s 6s 18 22 mph 1008.5mb 69f 70f
Sáb 08/30 11:50 6.5ft 7s 6s 20 25 mph 1008.6mb 69f 70f
10:50 5.5ft 7s 6s 18 22 mph 1008.7mb 69f 70f
9:50 5ft 16s 6s 18 20 mph 1009mb 69f 70f
8:50 5ft 8s 6s 16 18 mph 1008.9mb 69f 69f
7:50 5ft 8s 6s 13 16 mph 1008.6mb 69f 69f
6:50 5ft 8s 6s 13 16 mph 1008.5mb 69f 69f
5:50 5ft 7s 6s 16 18 mph 1008.5mb 69f 68f
4:50 5ft 7s 6s 18 20 mph 1008.7mb 69f 68f
3:50 5ft 7s 6s 18 20 mph 1009mb 69f 68f
2:50 5.5ft 7s 6s 18 20 mph 1009.5mb 69f 67f
1:50 5.5ft 7s 6s 16 18 mph 1010mb 69f 67f
12:50  -   -   -  13 16 mph 1010.5mb 69f 67f
11:50 6ft 7s 6s 16 18 mph 1010.8mb 69f 66f
10:50 6ft 7s 6s 13 18 mph 1010.9mb 69f 66f
9:50 6ft 7s 6s 13 18 mph 1010.8mb 69f 66f
8:50 6ft 7s 6s 13 18 mph 1010.6mb 69f 66f
7:50 6ft 6s 6s 16 18 mph 1010.4mb 69f 66f
6:50 6.5ft 7s 6s 16 20 mph 1010.1mb 69f 66f
5:50 6ft 7s 6s 18 22 mph 1009.8mb 69f 66f
4:50 6.5ft 7s 6s 18 20 mph 1009.8mb 69f 66f
3:50 6.5ft 6s 6s 18 22 mph 1010mb 69f 66f
2:50 7.5ft 7s 6s 18 22 mph 1010.2mb 69f 66f
1:50 7ft 7s 6s 18 22 mph 1010.2mb 69f 66f
12:50 6ft 7s 6s 18 22 mph 1010.3mb 69f 65f
Sex 08/29 11:50 6.5ft 7s 6s 18 22 mph 1010.8mb 69f 66f
10:50 6.5ft 6s 6s 18 22 mph 1011.3mb 69f 65f
9:50 7ft 6s 6s 20 25 mph 1011.5mb 69f 66f
8:50 6ft 7s 5s 20 22 mph 1011.3mb 69f 65f
7:50 6.5ft 6s 5s 22 27 mph 1010.9mb 69f 66f
6:50 6.5ft 9s 6s 22 27 mph 1010.6mb 69f 66f
5:50 6.5ft 9s 6s 22 25 mph 1011mb 69f 66f
4:50 6ft 7s 6s 20 25 mph 1010.9mb 69f 66f
3:50 6.5ft 7s 6s 20 25 mph 1011.5mb 69f 66f
2:50 6ft 7s 6s 20 25 mph 1012mb 69f 66f
1:50 7ft 7s 6s 18 25 mph 1012.5mb 69f 66f
12:50  -   -   -  18 20 mph 1012.9mb 69f 66f
11:50  -   -   -  16 18 mph 1013.2mb 69f 66f
10:50 7ft 7s 6s 18 20 mph 1013.5mb 69f 65f
9:50 7.5ft 10s 6s 18 20 mph 1013.5mb 69f 66f
8:50 7.5ft 7s 6s 18 22 mph 1013.2mb 69f 65f
7:50 7ft 10s 6s 18 22 mph 1013.2mb 69f 65f
6:50 7.5ft 10s 6s 18 22 mph 1013mb 69f 66f
5:50 7.5ft 10s 6s 20 22 mph 1012.4mb 69f 65f
4:50 7.5ft 10s 6s 18 22 mph 1012.3mb 69f 65f
3:50 7.5ft 10s 6s 18 22 mph 1012.5mb 69f 66f
2:50 7ft 11s 6s 18 22 mph 1012.6mb 69f 66f
1:50 7.5ft 11s 6s 20 22 mph 1012.7mb 69f 67f
12:50 7.5ft 10s 6s 20 22 mph 1013mb 69f 67f
Qui 08/28 11:50 7.5ft 11s 7s 20 25 mph 1013.2mb 69f 67f
10:50 7ft 11s 7s 18 22 mph 1013.8mb 69f 67f
9:50 7.5ft 11s 6s 18 20 mph 1013.8mb 69f 68f
8:50 7.5ft 11s 7s 18 22 mph 1013.6mb 69f 68f
7:50 7.5ft 11s 7s 20 22 mph 1013.5mb 69f 68f
6:50 7.5ft 11s 7s 20 22 mph 1013.5mb 69f 68f
5:50 7ft 11s 7s 20 22 mph 1013.6mb 69f 68f
4:50 8ft 12s 8s 18 22 mph 1013.9mb 69f 68f
3:50 8ft 11s 8s 18 20 mph 1014.7mb 69f 68f